createdAt,value
2023-02-04T00:00:50.138Z,6.63
2023-02-04T00:02:54.533Z,4.63
2023-02-04T00:04:57.599Z,5.28
2023-02-04T00:07:00.426Z,15.05
2023-02-04T00:09:03.475Z,1.30
2023-02-04T00:11:06.674Z,7.05
2023-02-04T00:13:09.958Z,5.38
2023-02-04T00:15:12.916Z,8.60
2023-02-04T00:17:15.918Z,6.93
2023-02-04T00:19:20.273Z,13.15
2023-02-04T00:21:23.272Z,12.48
2023-02-04T00:23:26.162Z,13.80
2023-02-04T00:25:29.109Z,10.18
2023-02-04T00:27:32.000Z,8.77
2023-02-04T00:29:35.437Z,11.88
2023-02-04T00:31:38.393Z,13.40
2023-02-04T00:33:43.160Z,14.00
2023-02-04T00:35:47.714Z,16.15
2023-02-04T00:37:50.915Z,6.38
2023-02-04T00:39:53.817Z,6.47
2023-02-04T00:41:56.787Z,6.50
2023-02-04T00:43:59.637Z,6.72
2023-02-04T00:46:02.730Z,10.95
2023-02-04T00:48:05.897Z,6.50
2023-02-04T00:50:09.865Z,5.10
2023-02-04T00:52:14.675Z,14.20
2023-02-04T00:54:17.862Z,7.63
2023-02-04T00:56:22.457Z,6.65
2023-02-04T00:58:25.607Z,6.20
2023-02-04T01:00:28.690Z,5.63
2023-02-04T01:02:32.532Z,5.90
2023-02-04T01:04:35.438Z,3.10
2023-02-04T01:06:38.440Z,2.53
2023-02-04T01:08:43.001Z,3.42
2023-02-04T01:10:46.039Z,2.38
2023-02-04T01:12:48.941Z,1.52
2023-02-04T01:14:51.931Z,2.15
2023-02-04T01:16:54.884Z,4.18
2023-02-04T01:18:57.974Z,4.72
2023-02-04T01:21:01.063Z,3.42
2023-02-04T01:23:04.057Z,1.13
2023-02-04T01:25:09.241Z,2.28
2023-02-04T01:27:18.532Z,2.35
2023-02-04T01:29:21.443Z,2.33
2023-02-04T01:31:24.538Z,1.85
2023-02-04T01:33:27.563Z,2.28
2023-02-04T01:35:30.761Z,4.40
2023-02-04T01:37:33.691Z,3.67
2023-02-04T01:39:37.381Z,4.97
2023-02-04T01:41:41.721Z,1.33
2023-02-04T01:43:44.821Z,1.30
2023-02-04T01:45:48.588Z,1.20
2023-02-04T01:47:52.481Z,1.20
2023-02-04T01:49:56.132Z,0.32
2023-02-04T01:51:59.281Z,0.77
2023-02-04T01:54:02.430Z,1.67
2023-02-04T01:58:20.112Z,2.05
2023-02-04T02:00:25.841Z,2.03
2023-02-04T02:04:45.243Z,3.20
2023-02-04T02:06:52.496Z,1.30
2023-02-04T02:08:55.602Z,0.85
2023-02-04T02:10:58.475Z,1.38
2023-02-04T02:13:02.711Z,1.58
2023-02-04T02:15:10.011Z,2.38
2023-02-04T02:17:12.955Z,2.75
2023-02-04T02:19:24.560Z,1.00
2023-02-04T02:21:35.159Z,1.85
2023-02-04T02:23:52.016Z,1.33
2023-02-04T02:25:55.100Z,0.52
2023-02-04T02:28:00.939Z,2.15
2023-02-04T02:30:04.891Z,1.05
2023-02-04T02:32:09.199Z,2.05
2023-02-04T02:34:12.291Z,1.50
2023-02-04T02:36:15.511Z,5.90
2023-02-04T02:38:20.408Z,0.98
2023-02-04T02:40:25.129Z,0.75
2023-02-04T02:42:28.179Z,1.45
2023-02-04T02:44:32.921Z,2.15
2023-02-04T02:46:36.122Z,1.63
2023-02-04T02:48:39.153Z,2.42
2023-02-04T02:50:43.495Z,2.30
2023-02-04T02:52:46.639Z,1.10
2023-02-04T02:54:50.555Z,3.42
2023-02-04T02:56:56.884Z,1.90
2023-02-04T02:59:13.793Z,1.10
2023-02-04T03:01:17.477Z,1.70
2023-02-04T03:03:24.121Z,1.55
2023-02-04T03:05:29.792Z,2.10
2023-02-04T03:07:34.159Z,0.90
2023-02-04T03:09:37.519Z,1.35
2023-02-04T03:11:40.553Z,0.57
2023-02-04T03:13:45.232Z,0.77
2023-02-04T03:15:48.609Z,0.73
2023-02-04T03:17:56.709Z,0.80
2023-02-04T03:19:59.754Z,1.77
2023-02-04T03:22:04.355Z,1.02
2023-02-04T03:24:07.744Z,2.60
2023-02-04T03:26:12.978Z,2.17
2023-02-04T03:28:16.018Z,2.95
2023-02-04T03:30:20.567Z,3.30
2023-02-04T03:32:23.742Z,5.47
2023-02-04T03:34:26.701Z,6.10
2023-02-04T03:36:29.600Z,8.80
2023-02-04T03:38:34.238Z,9.27
2023-02-04T03:40:37.098Z,8.85
2023-02-04T03:42:40.519Z,8.70
2023-02-04T03:44:43.399Z,7.53
2023-02-04T03:46:47.760Z,9.75
2023-02-04T03:48:50.684Z,8.75
2023-02-04T03:50:53.559Z,9.10
2023-02-04T03:52:56.558Z,10.88
2023-02-04T03:54:59.449Z,12.50
2023-02-04T03:57:02.400Z,5.18
2023-02-04T03:59:05.339Z,11.95
2023-02-04T04:01:08.396Z,10.63
2023-02-04T04:03:12.794Z,10.50
2023-02-04T04:05:15.879Z,8.98
2023-02-04T04:07:18.722Z,9.07
2023-02-04T04:09:21.681Z,5.10
2023-02-04T04:11:25.120Z,8.48
2023-02-04T04:13:28.001Z,10.27
2023-02-04T04:15:31.441Z,10.40
2023-02-04T04:17:34.617Z,7.90
2023-02-04T04:19:38.991Z,12.43
2023-02-04T04:21:42.000Z,10.80
2023-02-04T04:23:44.881Z,3.85
2023-02-04T04:25:48.023Z,10.48
2023-02-04T04:27:51.243Z,8.60
2023-02-04T04:29:54.108Z,8.23
2023-02-04T04:31:57.040Z,8.90
2023-02-04T04:34:00.397Z,6.00
2023-02-04T04:36:05.281Z,6.13
2023-02-04T04:38:08.134Z,7.00
2023-02-04T04:40:13.096Z,7.50
2023-02-04T04:42:16.071Z,6.85
2023-02-04T04:44:19.113Z,6.68
2023-02-04T04:46:22.114Z,5.30
2023-02-04T04:48:26.152Z,3.92
2023-02-04T04:50:29.187Z,5.10
2023-02-04T04:52:33.501Z,8.63
2023-02-04T04:54:36.792Z,4.30
2023-02-04T04:56:39.632Z,5.78
2023-02-04T04:58:42.821Z,5.40
2023-02-04T05:00:45.840Z,4.63
2023-02-04T05:02:48.822Z,8.45
2023-02-04T05:04:51.895Z,8.10
2023-02-04T05:06:54.838Z,6.10
2023-02-04T05:08:59.205Z,6.90
2023-02-04T05:11:02.237Z,6.25
2023-02-04T05:13:05.256Z,4.28
2023-02-04T05:15:09.239Z,7.53
2023-02-04T05:17:12.958Z,7.28
2023-02-04T05:19:15.949Z,7.20
2023-02-04T05:21:18.918Z,4.38
2023-02-04T05:23:21.911Z,6.50
2023-02-04T05:25:26.374Z,6.43
2023-02-04T05:27:29.297Z,6.60
2023-02-04T05:29:32.158Z,8.73
2023-02-04T05:31:35.445Z,3.55
2023-02-04T05:33:38.448Z,7.78
2023-02-04T05:35:41.872Z,8.20
2023-02-04T05:37:45.038Z,7.28
2023-02-04T05:39:48.278Z,7.72
2023-02-04T05:41:52.557Z,8.65
2023-02-04T05:43:55.542Z,8.25
2023-02-04T05:45:58.472Z,7.57
2023-02-04T05:48:01.552Z,8.68
2023-02-04T05:50:05.122Z,5.53
2023-02-04T05:52:09.123Z,8.55
2023-02-04T05:54:12.036Z,7.80
2023-02-04T05:56:14.986Z,8.38
2023-02-04T05:58:19.271Z,9.80
2023-02-04T06:00:22.640Z,9.60
2023-02-04T06:02:25.605Z,7.40
2023-02-04T06:04:28.595Z,11.90
2023-02-04T06:06:31.485Z,10.20
2023-02-04T06:08:34.605Z,6.47
2023-02-04T06:10:37.597Z,8.15
2023-02-04T06:12:40.525Z,9.18
2023-02-04T06:14:45.324Z,9.55
2023-02-04T06:16:48.388Z,9.90
2023-02-04T06:18:51.304Z,9.30
2023-02-04T06:20:54.355Z,8.27
2023-02-04T06:22:57.193Z,13.07
2023-02-04T06:25:00.316Z,10.18
2023-02-04T06:27:03.225Z,9.15
2023-02-04T06:29:06.174Z,10.70
2023-02-04T06:31:10.826Z,8.73
2023-02-04T06:33:13.894Z,7.68
2023-02-04T06:35:17.024Z,7.30
2023-02-04T06:37:21.261Z,7.40
2023-02-04T06:39:25.007Z,10.95
2023-02-04T06:41:27.994Z,10.70
2023-02-04T06:43:31.038Z,13.73
2023-02-04T06:45:34.194Z,9.07
2023-02-04T06:47:38.500Z,9.35
2023-02-04T06:49:41.555Z,10.88
2023-02-04T06:51:44.565Z,9.68
2023-02-04T06:53:47.515Z,10.02
2023-02-04T06:55:50.531Z,10.02
2023-02-04T06:57:53.494Z,10.93
2023-02-04T06:59:56.357Z,8.43
2023-02-04T07:01:59.414Z,10.00
2023-02-04T07:04:03.802Z,11.18
2023-02-04T07:06:07.075Z,10.50
2023-02-04T07:08:10.163Z,12.65
2023-02-04T07:10:13.646Z,12.65
2023-02-04T07:12:16.575Z,11.48
2023-02-04T07:14:19.585Z,10.77
2023-02-04T07:16:22.457Z,14.95
2023-02-04T07:18:25.423Z,17.52
2023-02-04T07:20:30.181Z,9.32
2023-02-04T07:22:33.437Z,12.57
2023-02-04T07:24:36.280Z,16.45
2023-02-04T07:26:39.357Z,12.50
2023-02-04T07:28:42.675Z,13.85
2023-02-04T07:30:45.807Z,11.07
2023-02-04T07:32:48.756Z,16.23
2023-02-04T07:34:51.736Z,15.52
2023-02-04T07:36:56.169Z,10.93
2023-02-04T07:38:59.300Z,10.27
2023-02-04T07:41:02.240Z,12.07
2023-02-04T07:43:05.403Z,14.88
2023-02-04T07:45:10.201Z,12.00
2023-02-04T07:47:13.188Z,14.43
2023-02-04T07:49:16.068Z,11.48
2023-02-04T07:51:19.155Z,10.90
2023-02-04T07:53:23.544Z,12.05
2023-02-04T07:55:26.505Z,13.43
2023-02-04T07:57:30.482Z,15.45
2023-02-04T07:59:33.538Z,16.15
2023-02-04T08:01:36.421Z,11.30
2023-02-04T08:03:41.499Z,15.65
2023-02-04T08:05:44.823Z,15.00
2023-02-04T08:07:47.972Z,12.10
2023-02-04T08:09:52.365Z,16.10
2023-02-04T08:11:55.614Z,14.02
2023-02-04T08:13:58.690Z,15.82
2023-02-04T08:16:01.896Z,15.23
2023-02-04T08:18:05.088Z,13.30
2023-02-04T08:20:10.029Z,13.32
2023-02-04T08:22:13.062Z,13.23
2023-02-04T08:24:16.896Z,13.30
2023-02-04T08:26:21.742Z,15.63
2023-02-04T08:28:25.038Z,14.30
2023-02-04T08:30:28.236Z,13.80
2023-02-04T08:32:31.697Z,14.55
2023-02-04T08:34:34.896Z,13.52
2023-02-04T08:36:38.147Z,17.95
2023-02-04T08:38:41.808Z,16.63
2023-02-04T08:40:44.980Z,14.82
2023-02-04T08:42:49.325Z,15.90
2023-02-04T08:44:52.517Z,14.30
2023-02-04T08:46:55.455Z,12.95
2023-02-04T08:48:58.657Z,13.35
2023-02-04T08:51:01.612Z,10.77
2023-02-04T08:53:04.624Z,13.90
2023-02-04T08:55:09.041Z,13.25
2023-02-04T08:57:12.210Z,17.50
2023-02-04T08:59:16.610Z,13.40
2023-02-04T09:01:19.687Z,12.52
2023-02-04T09:03:22.575Z,14.35
2023-02-04T09:05:25.792Z,13.02
2023-02-04T09:07:29.456Z,13.10
2023-02-04T09:09:32.402Z,13.95
2023-02-04T09:11:35.286Z,14.13
2023-02-04T09:13:38.357Z,15.77
2023-02-04T09:15:42.757Z,17.27
2023-02-04T09:17:45.722Z,11.90
2023-02-04T09:19:48.678Z,15.40
2023-02-04T09:21:51.901Z,13.77
2023-02-04T09:23:55.181Z,11.57
2023-02-04T09:25:58.167Z,13.18
2023-02-04T09:28:01.309Z,14.60
2023-02-04T09:30:04.676Z,16.20
2023-02-04T09:32:09.156Z,16.88
2023-02-04T09:34:12.288Z,10.90
2023-02-04T09:36:15.665Z,11.70
2023-02-04T09:38:18.616Z,10.93
2023-02-04T09:40:22.255Z,7.47
2023-02-04T09:42:26.641Z,13.45
2023-02-04T09:44:30.445Z,9.88
2023-02-04T09:46:34.251Z,10.02
2023-02-04T09:48:38.673Z,9.98
2023-02-04T09:50:42.628Z,12.40
2023-02-04T09:52:48.467Z,13.70
2023-02-04T09:54:51.892Z,12.77
2023-02-04T09:56:54.857Z,12.25
2023-02-04T09:58:57.844Z,13.93
2023-02-04T10:01:09.591Z,13.75
2023-02-04T10:03:17.405Z,12.57
2023-02-04T10:05:28.640Z,15.60
2023-02-04T10:07:32.813Z,13.45
2023-02-04T10:09:35.875Z,12.30
2023-02-04T10:11:40.744Z,11.85
2023-02-04T10:13:46.633Z,9.70
2023-02-04T10:15:50.797Z,10.73
2023-02-04T10:17:58.552Z,9.30
2023-02-04T10:20:01.838Z,8.30
2023-02-04T10:22:16.510Z,10.50
2023-02-04T10:24:21.712Z,10.38
2023-02-04T10:26:26.740Z,7.95
2023-02-04T10:28:34.958Z,7.50
2023-02-04T10:30:42.392Z,8.45
2023-02-04T10:32:45.765Z,10.48
2023-02-04T10:34:48.708Z,10.52
2023-02-04T10:36:53.868Z,10.05
2023-02-04T10:39:05.546Z,10.30
2023-02-04T10:41:14.848Z,8.82
2023-02-04T10:43:21.800Z,8.90
2023-02-04T10:45:26.783Z,11.85
2023-02-04T10:47:31.776Z,11.85
2023-02-04T10:49:35.066Z,8.02
2023-02-04T10:51:37.958Z,8.65
2023-02-04T10:53:59.808Z,6.13
2023-02-04T10:56:04.894Z,6.63
2023-02-04T10:58:11.404Z,9.27
2023-02-04T11:00:18.359Z,9.77
2023-02-04T11:02:41.106Z,8.75
2023-02-04T11:04:43.960Z,8.68
2023-02-04T11:06:47.052Z,7.90
2023-02-04T11:08:51.829Z,8.95
2023-02-04T11:10:58.459Z,8.00
2023-02-04T11:13:04.711Z,7.43
2023-02-04T11:15:28.809Z,8.25
2023-02-04T11:17:33.320Z,5.50
2023-02-04T11:19:39.111Z,7.75
2023-02-04T11:21:44.463Z,8.55
2023-02-04T11:23:47.902Z,8.88
2023-02-04T11:26:01.591Z,3.30
2023-02-04T11:28:16.463Z,6.70
2023-02-04T11:30:23.834Z,6.30
2023-02-04T11:32:33.014Z,5.05
2023-02-04T11:34:53.233Z,10.45
2023-02-04T11:37:12.387Z,10.13
2023-02-04T11:39:18.077Z,3.95
2023-02-04T11:41:25.800Z,6.55
2023-02-04T11:43:34.822Z,8.57
2023-02-04T11:45:38.885Z,9.52
2023-02-04T11:47:42.661Z,5.30
2023-02-04T11:49:53.205Z,5.10
2023-02-04T11:52:09.127Z,10.65
2023-02-04T11:54:12.525Z,8.18
2023-02-04T11:56:18.655Z,10.75
2023-02-04T11:58:22.764Z,9.40
2023-02-04T12:00:30.757Z,6.15
2023-02-04T12:02:43.156Z,9.35
2023-02-04T12:04:54.572Z,5.65
2023-02-04T12:06:59.272Z,9.98
2023-02-04T12:09:06.778Z,7.23
2023-02-04T12:11:12.798Z,7.53
2023-02-04T12:13:19.018Z,7.85
2023-02-04T12:15:24.749Z,6.05
2023-02-04T12:19:31.700Z,7.50
2023-02-04T12:21:34.520Z,5.78
2023-02-04T12:23:37.708Z,4.45
2023-02-04T12:25:40.599Z,4.60
2023-02-04T12:27:43.622Z,5.90
2023-02-04T12:29:46.980Z,5.95
2023-02-04T12:31:49.978Z,8.75
2023-02-04T12:33:54.645Z,9.07
2023-02-04T12:35:57.620Z,6.93
2023-02-04T12:38:00.608Z,7.15
2023-02-04T12:40:03.665Z,9.77
2023-02-04T12:42:06.678Z,8.70
2023-02-04T12:44:09.739Z,4.53
2023-02-04T12:46:12.949Z,5.60
2023-02-04T12:48:16.500Z,5.70
2023-02-04T12:50:23.007Z,7.00
2023-02-04T12:52:26.133Z,8.32
2023-02-04T12:54:28.997Z,7.55
2023-02-04T12:56:32.352Z,6.90
2023-02-04T12:58:35.311Z,8.25
2023-02-04T13:00:38.775Z,6.47
2023-02-04T13:02:41.922Z,5.00
2023-02-04T13:04:45.481Z,7.47
2023-02-04T13:06:49.853Z,6.18
2023-02-04T13:08:52.755Z,8.48
2023-02-04T13:10:55.873Z,9.50
2023-02-04T13:13:01.956Z,10.43
2023-02-04T13:15:07.020Z,7.90
2023-02-04T13:17:10.550Z,7.65
2023-02-04T13:19:13.493Z,7.38
2023-02-04T13:21:16.614Z,5.18
2023-02-04T13:23:20.904Z,9.05
2023-02-04T13:25:23.898Z,9.80
2023-02-04T13:27:28.114Z,9.20
2023-02-04T13:29:31.015Z,12.18
2023-02-04T13:31:33.907Z,11.23
2023-02-04T13:33:36.915Z,9.50
2023-02-04T13:35:39.791Z,11.27
2023-02-04T13:37:42.782Z,12.68
2023-02-04T13:39:47.085Z,10.98
2023-02-04T13:41:50.087Z,9.40
2023-02-04T13:43:53.190Z,11.60
2023-02-04T13:45:58.124Z,9.27
2023-02-04T13:48:01.044Z,12.63
2023-02-04T13:50:04.339Z,7.68
2023-02-04T13:52:07.239Z,7.22
2023-02-04T13:54:10.212Z,9.35
2023-02-04T13:56:14.661Z,7.88
2023-02-04T13:58:18.037Z,8.00
2023-02-04T14:00:21.256Z,10.25
2023-02-04T14:02:24.392Z,11.75
2023-02-04T14:04:30.941Z,9.88
2023-02-04T14:06:38.654Z,15.20
2023-02-04T14:08:46.530Z,24.92
2023-02-04T14:10:50.451Z,7.22
2023-02-04T14:12:55.153Z,3.92
2023-02-04T14:14:58.171Z,9.48
2023-02-04T14:17:01.061Z,8.63
2023-02-04T14:19:04.231Z,9.75
2023-02-04T14:21:07.200Z,5.55
2023-02-04T14:23:12.187Z,8.50
2023-02-04T14:25:15.376Z,5.28
2023-02-04T14:27:18.417Z,10.27
2023-02-04T14:29:22.846Z,4.88
2023-02-04T14:31:26.033Z,8.98
2023-02-04T14:33:28.973Z,5.75
2023-02-04T14:35:32.745Z,8.23
2023-02-04T14:37:35.772Z,8.00
2023-02-04T14:39:41.198Z,8.18
2023-02-04T14:41:45.255Z,7.72
2023-02-04T14:43:49.595Z,8.23
2023-02-04T14:45:54.033Z,10.77
2023-02-04T14:47:57.876Z,7.10
2023-02-04T14:50:00.982Z,13.30
2023-02-04T14:52:04.877Z,11.32
2023-02-04T14:54:07.718Z,15.10
2023-02-04T14:56:10.668Z,11.05
2023-02-04T14:58:13.533Z,11.90
2023-02-04T15:00:17.330Z,11.00
2023-02-04T15:02:23.240Z,12.80
2023-02-04T15:04:26.243Z,11.82
2023-02-04T15:06:29.239Z,11.13
2023-02-04T15:08:33.252Z,9.18
2023-02-04T15:10:36.301Z,6.57
2023-02-04T15:12:39.437Z,5.72
2023-02-04T15:14:42.446Z,12.85
2023-02-04T15:16:48.395Z,10.63
2023-02-04T15:20:55.798Z,10.25
2023-02-04T15:23:00.673Z,9.35
2023-02-04T15:25:04.238Z,9.27
2023-02-04T15:27:07.396Z,7.40
2023-02-04T15:29:10.326Z,9.90
2023-02-04T15:31:13.261Z,13.68
2023-02-04T15:33:17.186Z,10.32
2023-02-04T15:35:22.244Z,8.32
2023-02-04T15:37:25.206Z,13.43
2023-02-04T15:39:28.225Z,11.20
2023-02-04T15:41:31.114Z,9.38
2023-02-04T15:43:34.075Z,1.95
2023-02-04T15:45:41.619Z,8.70
2023-02-04T15:47:44.487Z,6.63
2023-02-04T15:49:47.653Z,8.40
2023-02-04T15:51:51.978Z,7.55
2023-02-04T15:53:54.973Z,7.80
2023-02-04T15:55:57.960Z,8.13
2023-02-04T15:58:01.039Z,8.13
2023-02-04T16:00:04.395Z,7.40
2023-02-04T16:02:07.580Z,7.68
2023-02-04T16:04:10.639Z,10.68
2023-02-04T16:06:13.669Z,10.40
2023-02-04T16:08:18.200Z,8.23
2023-02-04T16:10:21.535Z,7.18
2023-02-04T16:12:24.421Z,9.70
2023-02-04T16:14:27.510Z,8.32
2023-02-04T16:16:30.861Z,8.75
2023-02-04T16:18:33.922Z,4.63
2023-02-04T16:20:36.860Z,10.20
2023-02-04T16:22:40.303Z,8.38
2023-02-04T16:24:45.132Z,16.27
2023-02-04T16:26:48.082Z,17.70
2023-02-04T16:28:51.000Z,10.43
2023-02-04T16:30:53.997Z,11.85
2023-02-04T16:32:56.958Z,9.48
2023-02-04T16:35:00.874Z,7.03
2023-02-04T16:37:04.059Z,8.38
2023-02-04T16:39:07.016Z,8.32
2023-02-04T16:41:12.037Z,9.63
2023-02-04T16:43:14.916Z,8.20
2023-02-04T16:45:18.699Z,7.88
2023-02-04T16:47:21.715Z,8.75
2023-02-04T16:49:24.844Z,7.72
2023-02-04T16:51:28.939Z,7.22
2023-02-04T16:53:31.754Z,11.85
2023-02-04T16:55:35.553Z,8.63
2023-02-04T16:57:40.003Z,10.23
2023-02-04T16:59:42.997Z,7.93
2023-02-04T17:01:46.102Z,8.00
2023-02-04T17:03:49.154Z,9.00
2023-02-04T17:05:52.115Z,6.25
2023-02-04T17:07:55.763Z,6.28
2023-02-04T17:09:58.555Z,6.47
2023-02-04T17:12:01.515Z,7.35
2023-02-04T17:14:07.674Z,7.03
2023-02-04T17:16:10.822Z,7.88
2023-02-04T17:18:13.848Z,6.55
2023-02-04T17:20:17.404Z,6.80
2023-02-04T17:22:20.235Z,11.77
2023-02-04T17:24:24.855Z,10.82
2023-02-04T17:26:27.754Z,7.43
2023-02-04T17:28:30.675Z,11.43
2023-02-04T17:30:35.054Z,9.18
2023-02-04T17:32:38.177Z,7.38
2023-02-04T17:34:41.146Z,7.93
2023-02-04T17:36:44.119Z,7.85
2023-02-04T17:38:47.020Z,8.02
2023-02-04T17:40:50.524Z,7.65
2023-02-04T17:42:53.479Z,8.50
2023-02-04T17:44:56.913Z,9.20
2023-02-04T17:47:01.378Z,8.55
2023-02-04T17:49:04.512Z,9.02
2023-02-04T17:51:08.060Z,7.28
2023-02-04T17:53:12.232Z,8.90
2023-02-04T17:55:22.638Z,8.75
2023-02-04T17:57:25.761Z,7.28
2023-02-04T17:59:28.602Z,7.20
2023-02-04T18:01:32.085Z,10.18
2023-02-04T18:03:36.870Z,10.15
2023-02-04T18:05:44.062Z,7.95
2023-02-04T18:07:53.030Z,7.60
2023-02-04T18:10:08.460Z,6.22
2023-02-04T18:12:14.810Z,7.25
2023-02-04T18:14:24.649Z,7.57
2023-02-04T18:16:30.777Z,10.65
2023-02-04T18:18:38.759Z,9.25
2023-02-04T18:20:41.640Z,6.88
2023-02-04T18:22:44.589Z,10.93
2023-02-04T18:24:49.242Z,6.47
2023-02-04T18:26:54.493Z,6.88
2023-02-04T18:28:59.239Z,4.80
2023-02-04T18:31:04.046Z,7.70
2023-02-04T18:33:15.416Z,11.90
2023-02-04T18:35:48.515Z,8.55
2023-02-04T18:37:52.940Z,6.05
2023-02-04T18:40:01.158Z,9.43
2023-02-04T18:42:15.153Z,1.27
2023-02-04T18:44:29.253Z,9.07
2023-02-04T18:46:36.285Z,6.28
2023-02-04T18:49:01.354Z,8.88
2023-02-04T18:51:22.421Z,8.13
2023-02-04T18:53:27.376Z,9.57
2023-02-04T18:55:35.151Z,7.78
2023-02-04T18:57:40.017Z,8.10
2023-02-04T18:59:42.990Z,10.48
2023-02-04T19:01:47.931Z,9.55
2023-02-04T19:03:53.767Z,8.15
2023-02-04T19:05:58.990Z,7.18
2023-02-04T19:08:28.911Z,12.00
2023-02-04T19:10:34.417Z,7.88
2023-02-04T19:12:37.599Z,9.05
2023-02-04T19:14:43.112Z,9.38
2023-02-04T19:16:47.282Z,7.65
2023-02-04T19:18:51.243Z,6.05
2023-02-04T19:20:54.601Z,9.07
2023-02-04T19:22:58.308Z,5.20
2023-02-04T19:25:24.940Z,6.05
2023-02-04T19:27:32.030Z,7.97
2023-02-04T19:29:40.426Z,8.40
2023-02-04T19:31:43.403Z,6.82
2023-02-04T19:33:46.299Z,4.88
2023-02-04T19:35:49.704Z,6.85
2023-02-04T19:37:55.919Z,9.73
2023-02-04T19:39:59.020Z,10.90
2023-02-04T19:42:27.151Z,7.55
2023-02-04T19:44:42.794Z,7.45
2023-02-04T19:46:45.714Z,12.27
2023-02-04T19:48:48.627Z,8.13
2023-02-04T19:50:54.546Z,9.32
2023-02-04T19:53:01.522Z,7.93
2023-02-04T19:55:25.658Z,4.93
2023-02-04T19:57:33.050Z,7.07
2023-02-04T19:59:37.151Z,7.13
2023-02-04T20:01:40.176Z,9.05
2023-02-04T20:03:44.479Z,14.10
2023-02-04T20:05:47.466Z,8.00
2023-02-04T20:07:50.457Z,10.23
2023-02-04T20:09:58.639Z,8.70
2023-02-04T20:12:08.729Z,12.10
2023-02-04T20:14:29.788Z,9.48
2023-02-04T20:16:39.837Z,9.80
2023-02-04T20:18:42.802Z,8.35
2023-02-04T20:20:45.756Z,9.77
2023-02-04T20:22:51.388Z,7.93
2023-02-04T20:26:57.835Z,12.07
2023-02-04T20:29:00.774Z,11.82
2023-02-04T20:31:19.485Z,11.65
2023-02-04T20:33:32.556Z,16.50
2023-02-04T20:36:23.618Z,11.77
2023-02-04T20:38:26.795Z,9.63
2023-02-04T20:40:33.734Z,15.88
2023-02-04T20:42:45.003Z,3.50
2023-02-04T20:44:48.543Z,13.18
2023-02-04T20:46:58.779Z,14.68
2023-02-04T20:49:01.635Z,12.98
2023-02-04T20:51:05.956Z,12.90
2023-02-04T20:53:19.388Z,11.27
2023-02-04T20:55:27.258Z,12.65
2023-02-04T20:57:32.526Z,11.43
2023-02-04T20:59:35.649Z,12.02
2023-02-04T21:01:39.872Z,17.33
2023-02-04T21:03:46.103Z,13.30
2023-02-04T21:05:50.331Z,16.67
2023-02-04T21:07:58.428Z,12.38
2023-02-04T21:10:04.391Z,14.70
2023-02-04T21:12:07.956Z,11.38
2023-02-04T21:14:10.955Z,5.65
2023-02-04T21:16:13.907Z,11.48
2023-02-04T21:18:17.285Z,11.05
2023-02-04T21:20:21.716Z,9.88
2023-02-04T21:22:24.535Z,10.18
2023-02-04T21:24:28.563Z,11.73
2023-02-04T21:26:31.422Z,10.23
2023-02-04T21:28:34.675Z,10.15
2023-02-04T21:30:37.584Z,10.07
2023-02-04T21:32:40.605Z,12.25
2023-02-04T21:34:43.421Z,11.05
2023-02-04T21:36:47.838Z,11.73
2023-02-04T21:38:50.837Z,10.65
2023-02-04T21:40:53.701Z,8.25
2023-02-04T21:42:56.596Z,8.30
2023-02-04T21:45:01.642Z,10.27
2023-02-04T21:47:04.775Z,13.93
2023-02-04T21:49:08.015Z,11.45
2023-02-04T21:51:10.914Z,9.98
2023-02-04T21:53:15.339Z,10.43
2023-02-04T21:55:19.863Z,9.63
2023-02-04T21:57:23.178Z,15.15
2023-02-04T21:59:26.025Z,10.75
2023-02-04T22:01:28.938Z,10.77
2023-02-04T22:03:31.840Z,11.70
2023-02-04T22:05:35.369Z,11.20
2023-02-04T22:07:39.961Z,10.48
2023-02-04T22:09:44.491Z,10.13
2023-02-04T22:11:48.624Z,13.02
2023-02-04T22:13:51.577Z,15.43
2023-02-04T22:15:54.515Z,13.18
2023-02-04T22:17:57.780Z,13.48
2023-02-04T22:20:00.680Z,13.00
2023-02-04T22:22:03.957Z,15.32
2023-02-04T22:24:06.917Z,15.13
2023-02-04T22:26:11.477Z,11.02
2023-02-04T22:28:14.405Z,9.30
2023-02-04T22:30:18.599Z,13.88
2023-02-04T22:32:21.540Z,14.85
2023-02-04T22:34:25.608Z,18.17
2023-02-04T22:36:28.574Z,15.25
2023-02-04T22:38:31.486Z,20.48
2023-02-04T22:40:34.431Z,22.30
2023-02-04T22:42:39.841Z,25.67
2023-02-04T22:44:42.674Z,19.40
2023-02-04T22:46:47.559Z,15.50
2023-02-04T22:48:50.602Z,12.75
2023-02-04T22:50:55.249Z,15.55
2023-02-04T22:52:58.174Z,10.75
2023-02-04T22:55:01.300Z,14.02
2023-02-04T22:57:04.794Z,10.00
2023-02-04T22:59:09.372Z,11.13
2023-02-04T23:01:12.203Z,13.00
2023-02-04T23:03:15.185Z,13.00
2023-02-04T23:05:18.210Z,13.02
2023-02-04T23:07:21.427Z,15.10
2023-02-04T23:09:24.316Z,12.40
2023-02-04T23:11:27.307Z,15.48
2023-02-04T23:13:30.760Z,10.88
2023-02-04T23:15:35.704Z,12.50
2023-02-04T23:17:38.878Z,13.23
2023-02-04T23:19:41.923Z,12.82
2023-02-04T23:21:44.808Z,14.15
2023-02-04T23:23:48.322Z,11.73
2023-02-04T23:25:51.152Z,11.63
2023-02-04T23:27:54.244Z,11.20
2023-02-04T23:29:57.140Z,12.63
2023-02-04T23:32:01.912Z,9.38
2023-02-04T23:34:04.741Z,7.30
2023-02-04T23:36:08.752Z,10.07
2023-02-04T23:38:11.593Z,8.93
2023-02-04T23:40:14.525Z,13.55
2023-02-04T23:42:17.438Z,11.02
2023-02-04T23:44:20.448Z,9.02
2023-02-04T23:46:23.297Z,9.43
2023-02-04T23:48:27.869Z,10.88
2023-02-04T23:50:30.827Z,11.82
2023-02-04T23:52:33.832Z,12.32
2023-02-04T23:54:36.802Z,14.95
2023-02-04T23:56:39.796Z,9.25
2023-02-04T23:58:42.636Z,9.50
